Time;durP1;ratioP1;P1;durP2;ratioP2;P2;SDS_P1;SDS_P2;PMS_P1;PMS_P2;Temp;Humidity;BMP_temperature;BMP_pressure;BME280_temperature;BME280_humidity;BME280_pressure;Samples;Min_cycle;Max_cycle;Signal;HPM_P1;HPM_P2
2022/05/09 00:08:32;;;;;;;8.10;2.35;;;13.70;99.90;;;;;;6710347;88;20284;-83
2022/05/09 00:18:33;;;;;;;5.80;2.42;;;13.70;99.90;;;;;;6668063;88;20201;-83
2022/05/09 00:28:34;;;;;;;6.22;3.20;;;13.60;99.90;;;;;;6671692;88;20183;-83
2022/05/09 00:38:34;;;;;;;5.40;2.30;;;13.50;99.90;;;;;;6675771;88;20244;-83
2022/05/09 00:48:36;;;;;;;5.62;2.15;;;13.30;99.90;;;;;;6676456;88;20263;-84
2022/05/09 00:58:42;;;;;;;5.50;2.12;;;13.10;99.90;;;;;;6674572;88;20346;-83
2022/05/09 01:08:43;;;;;;;11.48;4.00;;;13.10;99.90;;;;;;6674139;88;20195;-83
2022/05/09 01:18:44;;;;;;;6.10;2.00;;;13.10;99.90;;;;;;6676773;88;21149;-82
2022/05/09 01:28:45;;;;;;;5.37;2.30;;;12.90;99.90;;;;;;6676813;88;20870;-83
2022/05/09 01:38:53;;;;;;;6.65;2.58;;;12.40;99.90;;;;;;6676664;89;20176;-82
2022/05/09 01:59:15;;;;;;;4.93;2.40;;;11.90;99.90;;;;;;6677154;88;20191;-83
2022/05/09 02:09:16;;;;;;;8.35;2.83;;;11.90;99.90;;;;;;6676972;88;20970;-83
2022/05/09 02:19:16;;;;;;;6.47;2.15;;;11.70;99.90;;;;;;6656891;89;20276;-83
2022/05/09 02:29:17;;;;;;;5.68;2.17;;;11.50;99.90;;;;;;6656439;89;20345;-83
2022/05/09 02:39:17;;;;;;;5.33;2.50;;;11.30;99.90;;;;;;6653863;88;20200;-83
2022/05/09 02:49:19;;;;;;;5.62;2.35;;;11.30;99.90;;;;;;6670158;89;20189;-83
2022/05/09 02:59:20;;;;;;;7.68;2.80;;;11.50;99.90;;;;;;6658743;88;20181;-84
2022/05/09 03:09:21;;;;;;;6.90;2.30;;;11.40;99.90;;;;;;6662700;88;20189;-83
2022/05/09 03:19:21;;;;;;;5.45;2.80;;;11.20;99.90;;;;;;6661592;89;21136;-81
2022/05/09 03:29:24;;;;;;;5.70;3.00;;;11.20;99.90;;;;;;6660133;89;20184;-83
2022/05/09 03:39:24;;;;;;;7.28;3.00;;;10.70;99.90;;;;;;6662270;88;20805;-82
2022/05/09 03:49:27;;;;;;;4.57;2.55;;;10.60;99.90;;;;;;6640391;89;20180;-83
2022/05/09 03:59:28;;;;;;;5.80;2.67;;;10.40;99.90;;;;;;6641648;89;20759;-82
2022/05/09 04:09:28;;;;;;;5.20;3.00;;;10.40;99.90;;;;;;6641532;88;20258;-82
2022/05/09 04:19:29;;;;;;;6.40;3.33;;;10.40;99.90;;;;;;6656808;88;20196;-83
2022/05/09 04:29:29;;;;;;;9.20;2.92;;;10.30;99.90;;;;;;6661948;88;20196;-82
2022/05/09 04:39:30;;;;;;;9.00;3.30;;;10.50;99.90;;;;;;6657880;88;20372;-81
2022/05/09 04:49:30;;;;;;;7.12;3.00;;;10.30;99.90;;;;;;6661937;88;20172;-82
2022/05/09 04:59:31;;;;;;;8.10;3.37;;;10.50;99.90;;;;;;6663544;88;20360;-82
2022/05/09 05:09:31;;;;;;;8.57;2.97;;;10.70;99.90;;;;;;6643831;88;20207;-82
2022/05/09 05:19:40;;;;;;;6.78;3.00;;;10.80;99.90;;;;;;6646160;88;20235;-82
2022/05/09 05:29:42;;;;;;;6.62;2.83;;;11.00;99.90;;;;;;6646395;89;20206;-83
2022/05/09 05:39:44;;;;;;;7.72;3.55;;;11.00;99.90;;;;;;6674814;88;20217;-82
2022/05/09 05:49:45;;;;;;;7.82;3.22;;;11.10;99.90;;;;;;6682203;88;20165;-87
2022/05/09 06:00:26;;;;;;;5.45;3.30;;;11.60;99.90;;;;;;6753771;78;20710;-84
2022/05/09 06:30:34;;;;;;;6.78;3.70;;;13.40;99.90;;;;;;6650856;88;21548;-81
2022/05/09 07:00:41;;;;;;;10.50;2.87;;;15.50;99.90;;;;;;6673717;88;20201;-79
2022/05/09 07:10:42;;;;;;;5.75;2.85;;;16.10;99.90;;;;;;6647509;89;20331;-79
2022/05/09 07:20:42;;;;;;;7.40;2.78;;;17.10;99.90;;;;;;6639414;88;20322;-78
2022/05/09 07:30:43;;;;;;;4.97;2.35;;;17.40;99.90;;;;;;6633112;88;20265;-79
2022/05/09 07:40:46;;;;;;;6.43;2.40;;;17.90;99.90;;;;;;6636516;88;20198;-79
2022/05/09 07:50:47;;;;;;;9.05;2.80;;;18.80;99.90;;;;;;6629094;88;20239;-80
2022/05/09 08:00:48;;;;;;;12.85;2.87;;;19.10;99.90;;;;;;6626778;89;20218;-80
2022/05/09 08:10:49;;;;;;;9.18;2.50;;;19.40;99.90;;;;;;6640189;89;20243;-78
2022/05/09 08:20:50;;;;;;;6.50;2.07;;;19.60;99.90;;;;;;6640811;89;20211;-78
2022/05/09 08:30:52;;;;;;;6.95;2.10;;;20.60;99.90;;;;;;6636964;89;20257;-78
2022/05/09 08:41:04;;;;;;;7.53;2.40;;;20.30;99.90;;;;;;6638100;89;20179;-78
2022/05/09 08:51:11;;;;;;;7.78;2.72;;;20.10;99.90;;;;;;6637769;89;20199;-79
2022/05/09 09:01:15;;;;;;;5.22;2.67;;;21.50;99.90;;;;;;6637524;88;20229;-81
2022/05/09 09:11:29;;;;;;;7.35;2.90;;;22.60;98.20;;;;;;6637447;89;20198;-80
2022/05/09 09:21:41;;;;;;;5.57;3.20;;;22.70;97.90;;;;;;6639765;89;20197;-80
2022/05/09 09:31:50;;;;;;;6.20;2.70;;;22.10;98.60;;;;;;6640597;89;20184;-80
2022/05/09 09:41:50;;;;;;;7.55;3.10;;;23.30;97.50;;;;;;6642544;89;20268;-79
2022/05/09 09:51:51;;;;;;;5.22;3.40;;;23.40;97.00;;;;;;6639319;88;20972;-78
2022/05/09 10:02:06;;;;;;;5.65;3.33;;;24.60;95.50;;;;;;6648714;88;20288;-80
2022/05/09 10:12:25;;;;;;;5.10;3.22;;;24.40;95.20;;;;;;6656435;89;20182;-80
2022/05/09 10:33:00;;;;;;;6.18;3.60;;;24.70;94.60;;;;;;6632835;89;20168;-79
2022/05/09 10:43:06;;;;;;;5.80;3.40;;;25.90;93.40;;;;;;6659588;89;20199;-80
2022/05/09 10:53:22;;;;;;;5.15;3.28;;;25.00;91.90;;;;;;6666037;89;20208;-79
2022/05/09 11:03:27;;;;;;;4.78;3.15;;;25.90;92.10;;;;;;6656362;88;20487;-79
2022/05/09 11:13:49;;;;;;;8.02;3.28;;;26.00;90.90;;;;;;6657170;89;20199;-78
2022/05/09 11:24:13;;;;;;;5.03;2.70;;;25.90;87.10;;;;;;6656441;88;20224;-78
2022/05/09 11:34:32;;;;;;;;;;;26.40;82.60;;;;;;6656557;88;20188;-78
2022/05/09 11:44:45;;;;;;;7.05;2.50;;;26.90;79.90;;;;;;6640053;89;20053;-77
2022/05/09 11:54:48;;;;;;;7.20;2.55;;;27.80;77.60;;;;;;6623741;89;20230;-79
2022/05/09 12:04:48;;;;;;;4.80;2.50;;;27.90;74.90;;;;;;6626423;88;20797;-78
2022/05/09 12:14:50;;;;;;;3.92;2.80;;;27.20;76.90;;;;;;6637720;89;20200;-78
2022/05/09 12:24:51;;;;;;;5.83;2.60;;;28.20;74.90;;;;;;6655195;88;20222;-77
2022/05/09 12:34:52;;;;;;;10.30;2.58;;;27.80;75.20;;;;;;6730210;88;20440;-77
2022/05/09 12:44:56;;;;;;;7.78;2.53;;;28.10;72.50;;;;;;6743120;88;20199;-77
2022/05/09 13:05:34;;;;;;;3.95;2.30;;;29.50;70.90;;;;;;6739137;88;20196;-77
2022/05/09 13:15:35;;;;;;;4.07;2.47;;;28.20;70.10;;;;;;6742872;88;20192;-78
2022/05/09 16:56:48;;;;;;;6.62;3.15;;;26.90;69.70;;;;;;6641649;89;20769;-78
2022/05/09 17:06:48;;;;;;;6.10;3.10;;;26.70;69.50;;;;;;6642016;89;20216;-82
2022/05/09 17:16:49;;;;;;;5.33;2.93;;;26.90;69.20;;;;;;6639877;89;20507;-81
2022/05/09 17:26:50;;;;;;;5.65;2.62;;;28.00;67.70;;;;;;6639476;89;20552;-81
2022/05/09 17:47:11;;;;;;;4.50;2.90;;;27.20;68.90;;;;;;6629304;88;20269;-81
2022/05/09 17:57:20;;;;;;;5.05;2.62;;;26.20;70.40;;;;;;6661419;89;20210;-81
2022/05/09 18:07:20;;;;;;;5.12;2.78;;;26.90;70.60;;;;;;6665273;89;20242;-83
2022/05/09 18:17:25;;;;;;;7.47;3.28;;;27.10;69.80;;;;;;6668803;89;20250;-79
2022/05/09 18:27:25;;;;;;;5.05;2.67;;;25.60;71.60;;;;;;6655731;89;20228;-79
2022/05/09 18:37:37;;;;;;;4.65;2.75;;;24.90;72.70;;;;;;6655410;89;20355;-78
2022/05/09 18:47:39;;;;;;;8.63;3.03;;;24.60;73.90;;;;;;6639154;88;20335;-78
2022/05/09 18:57:43;;;;;;;6.70;3.33;;;24.20;74.40;;;;;;6638565;88;20191;-78
2022/05/09 19:07:45;;;;;;;5.43;2.72;;;23.80;75.80;;;;;;6638957;89;20204;-78
2022/05/09 19:17:47;;;;;;;5.55;2.80;;;23.40;76.90;;;;;;6641944;88;20235;-78
2022/05/09 19:27:47;;;;;;;4.72;2.90;;;23.10;78.20;;;;;;6640850;89;20216;-78
2022/05/09 19:37:48;;;;;;;3.85;3.00;;;22.70;79.10;;;;;;6639068;89;20236;-79
2022/05/09 19:47:49;;;;;;;4.57;3.03;;;22.40;80.30;;;;;;6638965;88;20224;-78
2022/05/09 19:57:50;;;;;;;4.85;3.15;;;22.00;81.20;;;;;;6637880;88;20721;-80
2022/05/09 20:07:50;;;;;;;7.47;3.62;;;21.70;83.00;;;;;;6644095;78;20335;-78
2022/05/09 20:17:53;;;;;;;7.22;3.20;;;21.70;84.20;;;;;;6659006;88;20176;-78
2022/05/09 20:38:13;;;;;;;7.35;3.65;;;21.00;86.50;;;;;;6647287;88;20734;-77
2022/05/09 20:48:16;;;;;;;7.62;3.37;;;20.90;87.30;;;;;;6634201;88;20212;-77
2022/05/09 20:58:20;;;;;;;5.43;3.23;;;20.70;88.50;;;;;;6631771;88;20196;-77
2022/05/09 21:08:23;;;;;;;7.83;3.30;;;20.40;89.80;;;;;;6635195;88;20196;-77
2022/05/09 21:18:24;;;;;;;5.80;3.20;;;20.40;90.20;;;;;;6657206;88;20234;-78
2022/05/09 21:28:28;;;;;;;5.03;3.20;;;20.20;90.50;;;;;;6661626;88;20776;-77
2022/05/09 21:48:50;;;;;;;6.40;3.10;;;19.80;91.50;;;;;;6659824;89;20088;-77
2022/05/09 21:58:50;;;;;;;7.68;4.22;;;19.70;91.90;;;;;;6664431;88;20259;-78
2022/05/09 22:08:51;;;;;;;5.30;3.40;;;19.50;92.80;;;;;;6660578;88;20271;-78
2022/05/09 22:18:52;;;;;;;3.80;3.10;;;19.40;93.30;;;;;;6636315;88;21531;-78
2022/05/09 22:29:27;;;;;;;5.45;3.37;;;19.20;94.10;;;;;;6675326;88;20600;-78
2022/05/09 22:39:13;;;;;;;5.45;3.17;;;19.00;95.20;;;;;;6646275;88;20222;-78
2022/05/09 22:49:25;;;;;;;5.53;3.30;;;18.70;96.40;;;;;;6652221;88;20208;-81
2022/05/09 22:59:25;;;;;;;5.37;3.40;;;18.60;97.80;;;;;;6717828;88;20589;-77
2022/05/09 23:09:26;;;;;;;6.70;3.75;;;18.30;99.90;;;;;;6680198;88;20378;-77
2022/05/09 23:19:27;;;;;;;5.93;4.00;;;18.10;99.90;;;;;;6734464;88;20250;-77
2022/05/09 23:29:29;;;;;;;5.40;4.00;;;17.80;99.90;;;;;;6734173;88;20755;-76
2022/05/09 23:39:30;;;;;;;6.15;3.75;;;17.70;99.90;;;;;;6733479;88;20237;-78
2022/05/09 23:49:34;;;;;;;5.90;4.47;;;17.40;99.90;;;;;;6720484;88;20685;-77
2022/05/09 23:59:35;;;;;;;5.57;3.77;;;17.40;99.90;;;;;;6733469;88;20210;-78
